Time;durP1;ratioP1;P1;durP2;ratioP2;P2;SDS_P1;SDS_P2;PMS_P1;PMS_P2;Temp;Humidity;BMP_temperature;BMP_pressure;BME280_temperature;BME280_humidity;BME280_pressure;Samples;Min_cycle;Max_cycle;Signal;HPM_P1;HPM_P2
2023/04/13 00:00:35;;;;;;;2.25;1.00;;;;;;;;;;4975166;28;20058;-65
2023/04/13 00:03:02;;;;;;;1.90;1.00;;;;;;;;;;4992183;28;20113;-65
2023/04/13 00:05:29;;;;;;;3.40;0.90;;;;;;;;;;4974188;28;20117;-66
2023/04/13 00:07:55;;;;;;;4.97;1.08;;;;;;;;;;4991253;28;20509;-64
2023/04/13 00:10:21;;;;;;;1.52;0.90;;;;;;;;;;4959026;28;20058;-64
2023/04/13 00:12:48;;;;;;;1.20;0.60;;;;;;;;;;4992534;28;20549;-65
2023/04/13 00:15:15;;;;;;;2.58;1.00;;;;;;;;;;4958621;28;20050;-64
2023/04/13 00:17:42;;;;;;;3.78;0.85;;;;;;;;;;4963305;28;20053;-64
2023/04/13 00:20:11;;;;;;;1.23;0.70;;;;;;;;;;4955669;28;20535;-65
2023/04/13 00:22:38;;;;;;;3.03;1.00;;;;;;;;;;4984145;28;20050;-64
2023/04/13 00:25:06;;;;;;;5.80;1.70;;;;;;;;;;4981676;28;20133;-65
2023/04/13 00:27:32;;;;;;;1.73;0.70;;;;;;;;;;4977763;28;20112;-65
2023/04/13 00:29:58;;;;;;;1.50;0.60;;;;;;;;;;4962463;28;20054;-66
2023/04/13 00:32:24;;;;;;;1.50;0.70;;;;;;;;;;4996064;28;20133;-65
2023/04/13 00:34:51;;;;;;;2.65;0.70;;;;;;;;;;4978986;28;20475;-65
2023/04/13 00:37:18;;;;;;;4.30;1.42;;;;;;;;;;4993628;28;20438;-65
2023/04/13 00:39:45;;;;;;;4.43;0.90;;;;;;;;;;4962715;28;20054;-66
2023/04/13 00:42:11;;;;;;;2.80;0.70;;;;;;;;;;4960022;28;20050;-64
2023/04/13 00:44:38;;;;;;;2.53;1.13;;;;;;;;;;4995301;28;20050;-65
2023/04/13 00:47:05;;;;;;;4.45;0.90;;;;;;;;;;4995761;28;20039;-65
2023/04/13 00:49:32;;;;;;;3.28;1.02;;;;;;;;;;4978315;28;20526;-66
2023/04/13 00:52:10;;;;;;;1.98;0.80;;;;;;;;;;4946559;28;20050;-66
2023/04/13 00:54:37;;;;;;;3.05;0.60;;;;;;;;;;5007951;23;20547;-66
2023/04/13 00:57:04;;;;;;;2.92;1.08;;;;;;;;;;4961943;28;20058;-65
2023/04/13 00:59:30;;;;;;;1.58;0.82;;;;;;;;;;4977670;28;20053;-66
2023/04/13 01:01:57;;;;;;;5.38;0.90;;;;;;;;;;4962497;28;20136;-65
2023/04/13 01:04:29;;;;;;;5.10;0.75;;;;;;;;;;4961212;28;20046;-65
2023/04/13 01:07:14;;;;;;;1.63;0.80;;;;;;;;;;4981674;28;20081;-66
2023/04/13 01:09:45;;;;;;;4.85;1.55;;;;;;;;;;4978163;28;20042;-65
2023/04/13 01:12:13;;;;;;;3.67;1.00;;;;;;;;;;4976576;28;20065;-64
2023/04/13 01:14:43;;;;;;;1.83;0.90;;;;;;;;;;4969671;23;20108;-66
2023/04/13 01:17:15;;;;;;;4.32;1.17;;;;;;;;;;5002096;28;20513;-65
2023/04/13 01:20:05;;;;;;;3.00;1.00;;;;;;;;;;4986356;28;20049;-67
2023/04/13 01:22:34;;;;;;;1.88;0.90;;;;;;;;;;4995330;28;20092;-65
2023/04/13 01:25:21;;;;;;;2.45;0.90;;;;;;;;;;4980658;28;20065;-65
2023/04/13 01:27:56;;;;;;;3.05;0.80;;;;;;;;;;5013952;28;20046;-66
2023/04/13 01:30:25;;;;;;;2.50;1.08;;;;;;;;;;5013231;28;20052;-66
2023/04/13 01:32:51;;;;;;;2.30;1.00;;;;;;;;;;4980576;28;20058;-66
2023/04/13 01:35:19;;;;;;;2.90;1.38;;;;;;;;;;5013077;28;20628;-65
2023/04/13 01:37:46;;;;;;;4.97;0.90;;;;;;;;;;5013327;28;20117;-65
2023/04/13 01:40:12;;;;;;;2.53;1.17;;;;;;;;;;5011946;28;20086;-65
2023/04/13 01:42:45;;;;;;;2.95;0.98;;;;;;;;;;5014313;28;20441;-65
2023/04/13 01:45:19;;;;;;;2.55;1.20;;;;;;;;;;4996936;28;20050;-64
2023/04/13 01:48:09;;;;;;;3.78;1.10;;;;;;;;;;5014284;28;20050;-66
2023/04/13 01:50:37;;;;;;;2.38;1.20;;;;;;;;;;5000009;28;20129;-66
2023/04/13 01:53:06;;;;;;;3.13;1.48;;;;;;;;;;4994229;28;20076;-66
2023/04/13 01:55:36;;;;;;;2.75;1.00;;;;;;;;;;5013582;28;20100;-66
2023/04/13 01:58:03;;;;;;;4.80;1.30;;;;;;;;;;4996451;28;20060;-65
2023/04/13 02:00:36;;;;;;;2.58;1.08;;;;;;;;;;4995673;28;20141;-66
2023/04/13 02:03:11;;;;;;;2.58;1.27;;;;;;;;;;4996542;28;20050;-65
2023/04/13 02:05:38;;;;;;;5.15;1.15;;;;;;;;;;4995797;28;20053;-67
2023/04/13 02:08:05;;;;;;;2.95;1.15;;;;;;;;;;4994873;28;20048;-67
2023/04/13 02:10:33;;;;;;;2.35;1.20;;;;;;;;;;4994987;28;20063;-66
2023/04/13 02:12:59;;;;;;;4.80;0.95;;;;;;;;;;4979359;28;20494;-65
2023/04/13 02:15:25;;;;;;;4.32;1.10;;;;;;;;;;5006486;28;20505;-66
2023/04/13 02:17:51;;;;;;;2.58;0.90;;;;;;;;;;4994300;28;20090;-66
2023/04/13 02:20:18;;;;;;;5.25;1.30;;;;;;;;;;4993373;28;20050;-65
2023/04/13 02:22:44;;;;;;;3.53;0.93;;;;;;;;;;4993478;28;20042;-66
2023/04/13 02:25:10;;;;;;;2.42;0.90;;;;;;;;;;4993965;28;20438;-65
2023/04/13 02:27:37;;;;;;;0.77;0.52;;;;;;;;;;4976241;28;20189;-65
2023/04/13 02:30:05;;;;;;;1.85;0.80;;;;;;;;;;4975299;28;20479;-65
2023/04/13 02:32:31;;;;;;;3.15;0.90;;;;;;;;;;4960537;28;20782;-66
2023/04/13 02:35:01;;;;;;;3.30;0.80;;;;;;;;;;4976381;28;20046;-66
2023/04/13 02:37:31;;;;;;;1.73;0.88;;;;;;;;;;4992775;28;20038;-66
2023/04/13 02:39:57;;;;;;;2.60;0.80;;;;;;;;;;4959998;28;20511;-66
2023/04/13 02:42:23;;;;;;;1.95;0.82;;;;;;;;;;4959847;28;20034;-66
2023/04/13 02:44:50;;;;;;;3.25;1.10;;;;;;;;;;4973869;28;20062;-65
2023/04/13 02:47:16;;;;;;;2.60;1.00;;;;;;;;;;4974635;28;20046;-65
2023/04/13 02:49:43;;;;;;;2.22;1.00;;;;;;;;;;4959360;28;20058;-65
2023/04/13 02:52:09;;;;;;;5.25;1.02;;;;;;;;;;4975816;28;20057;-66
2023/04/13 02:54:35;;;;;;;3.25;1.15;;;;;;;;;;4993391;28;20050;-66
2023/04/13 02:57:01;;;;;;;1.88;0.82;;;;;;;;;;4992917;28;20048;-65
2023/04/13 02:59:27;;;;;;;3.53;1.10;;;;;;;;;;4990832;28;20105;-65
2023/04/13 03:01:57;;;;;;;3.78;1.25;;;;;;;;;;4992867;28;20054;-66
2023/04/13 03:04:28;;;;;;;2.33;1.00;;;;;;;;;;4960513;28;20060;-66
2023/04/13 03:06:55;;;;;;;2.25;1.30;;;;;;;;;;4959590;28;20077;-65
2023/04/13 03:09:23;;;;;;;3.30;1.35;;;;;;;;;;4974531;28;20042;-65
2023/04/13 03:11:50;;;;;;;1.67;1.00;;;;;;;;;;4975886;28;20093;-65
2023/04/13 03:14:21;;;;;;;4.43;1.20;;;;;;;;;;4975632;28;20471;-64
2023/04/13 03:16:48;;;;;;;2.53;1.08;;;;;;;;;;4991043;28;20494;-65
2023/04/13 03:19:17;;;;;;;5.38;1.25;;;;;;;;;;5011562;28;20048;-65
2023/04/13 03:21:43;;;;;;;1.90;1.02;;;;;;;;;;4978988;28;20486;-65
2023/04/13 03:24:11;;;;;;;4.53;1.48;;;;;;;;;;5012231;28;20133;-65
2023/04/13 03:26:37;;;;;;;3.63;1.20;;;;;;;;;;4978798;28;20037;-65
2023/04/13 03:29:03;;;;;;;4.40;1.10;;;;;;;;;;4993068;28;20038;-64
2023/04/13 03:31:29;;;;;;;6.55;2.55;;;;;;;;;;4994551;28;20402;-65
2023/04/13 03:33:57;;;;;;;2.83;1.15;;;;;;;;;;5011584;28;20045;-65
2023/04/13 03:36:23;;;;;;;2.20;1.05;;;;;;;;;;4978610;28;20057;-65
2023/04/13 03:38:49;;;;;;;2.45;1.40;;;;;;;;;;4993400;28;20438;-65
2023/04/13 03:41:15;;;;;;;4.88;1.73;;;;;;;;;;4978880;28;20045;-64
2023/04/13 03:43:41;;;;;;;2.45;1.40;;;;;;;;;;5002960;28;20144;-65
2023/04/13 03:46:07;;;;;;;4.25;1.10;;;;;;;;;;5007983;28;20089;-65
2023/04/13 03:48:33;;;;;;;1.92;0.80;;;;;;;;;;5011460;28;20132;-65
2023/04/13 03:51:00;;;;;;;1.52;0.82;;;;;;;;;;4975397;28;20045;-65
2023/04/13 03:53:26;;;;;;;2.10;1.30;;;;;;;;;;4974655;28;20058;-65
2023/04/13 03:55:52;;;;;;;3.33;1.38;;;;;;;;;;5010452;28;20418;-64
2023/04/13 03:58:18;;;;;;;3.17;1.23;;;;;;;;;;4988548;28;20498;-65
2023/04/13 04:00:45;;;;;;;3.17;1.10;;;;;;;;;;4978737;28;20108;-65
2023/04/13 04:03:11;;;;;;;2.28;1.25;;;;;;;;;;4978412;28;20042;-64
2023/04/13 04:05:39;;;;;;;2.38;1.33;;;;;;;;;;5011301;28;20049;-65
2023/04/13 04:08:05;;;;;;;3.67;1.48;;;;;;;;;;5011552;28;20502;-65
2023/04/13 04:10:31;;;;;;;4.15;1.60;;;;;;;;;;4994532;28;20049;-65
2023/04/13 04:12:57;;;;;;;4.30;1.48;;;;;;;;;;5011425;28;20045;-65
2023/04/13 04:15:23;;;;;;;3.13;1.90;;;;;;;;;;4991102;28;20058;-65
2023/04/13 04:17:50;;;;;;;4.15;2.00;;;;;;;;;;4974083;28;20054;-65
2023/04/13 04:20:16;;;;;;;5.47;2.10;;;;;;;;;;4990458;28;20046;-66
2023/04/13 04:22:43;;;;;;;4.00;2.28;;;;;;;;;;4974210;28;20076;-66
2023/04/13 04:25:10;;;;;;;3.92;2.15;;;;;;;;;;4991265;28;20046;-66
2023/04/13 04:27:39;;;;;;;5.22;2.72;;;;;;;;;;4989845;28;20058;-65
2023/04/13 04:30:09;;;;;;;5.80;3.05;;;;;;;;;;4992149;28;20046;-65
2023/04/13 04:32:35;;;;;;;5.07;2.70;;;;;;;;;;4990973;28;20054;-65
2023/04/13 04:35:03;;;;;;;5.95;2.55;;;;;;;;;;4991104;28;20093;-65
2023/04/13 04:37:36;;;;;;;5.72;2.90;;;;;;;;;;4990658;28;20130;-64
2023/04/13 04:40:02;;;;;;;5.40;3.10;;;;;;;;;;4991243;28;20050;-65
2023/04/13 04:42:28;;;;;;;4.85;2.90;;;;;;;;;;4989956;28;20069;-65
2023/04/13 04:44:55;;;;;;;5.22;3.08;;;;;;;;;;4990315;28;20494;-64
2023/04/13 04:47:29;;;;;;;8.02;3.42;;;;;;;;;;4983086;23;20049;-64
2023/04/13 04:50:02;;;;;;;6.50;2.88;;;;;;;;;;5021531;23;20053;-65
2023/04/13 04:52:28;;;;;;;4.35;2.38;;;;;;;;;;4954276;28;20038;-66
2023/04/13 04:54:54;;;;;;;6.68;3.33;;;;;;;;;;4972829;28;20159;-65
2023/04/13 04:57:20;;;;;;;5.25;2.75;;;;;;;;;;4972647;28;20490;-65
2023/04/13 04:59:48;;;;;;;4.53;2.30;;;;;;;;;;4987513;28;20150;-65
2023/04/13 05:02:15;;;;;;;4.13;1.90;;;;;;;;;;4991794;28;20104;-65
2023/04/13 05:04:41;;;;;;;6.18;1.90;;;;;;;;;;4974372;28;20394;-65
2023/04/13 05:07:08;;;;;;;6.70;1.92;;;;;;;;;;4956876;28;20162;-65
2023/04/13 05:09:36;;;;;;;4.47;1.92;;;;;;;;;;4954656;28;20049;-65
2023/04/13 05:12:03;;;;;;;5.65;2.03;;;;;;;;;;4958868;28;20043;-65
2023/04/13 05:14:29;;;;;;;6.75;1.90;;;;;;;;;;4957009;28;20069;-65
2023/04/13 05:16:55;;;;;;;11.80;2.70;;;;;;;;;;4994251;28;20483;-64
2023/04/13 05:19:21;;;;;;;7.55;1.70;;;;;;;;;;4994853;28;20117;-65
2023/04/13 05:21:47;;;;;;;6.10;2.15;;;;;;;;;;4995263;28;20053;-64
2023/04/13 05:24:13;;;;;;;6.60;1.75;;;;;;;;;;4976291;28;20034;-65
2023/04/13 05:26:39;;;;;;;4.78;1.73;;;;;;;;;;4993142;28;20399;-64
2023/04/13 05:29:06;;;;;;;9.85;2.58;;;;;;;;;;4948023;28;20376;-65
2023/04/13 05:31:33;;;;;;;5.43;2.67;;;;;;;;;;4958355;28;20122;-65
2023/04/13 05:33:59;;;;;;;5.60;2.35;;;;;;;;;;4988473;28;20042;-64
2023/04/13 05:36:25;;;;;;;7.28;2.20;;;;;;;;;;4976579;28;20061;-64
2023/04/13 05:38:52;;;;;;;6.85;2.67;;;;;;;;;;4958587;28;20129;-64
2023/04/13 05:41:18;;;;;;;8.85;2.50;;;;;;;;;;4966506;28;20386;-64
2023/04/13 05:43:45;;;;;;;9.98;2.33;;;;;;;;;;4965595;28;20479;-65
2023/04/13 05:46:11;;;;;;;4.15;2.03;;;;;;;;;;4975524;28;20045;-64
2023/04/13 05:48:37;;;;;;;3.88;1.88;;;;;;;;;;4952383;28;20379;-65
2023/04/13 05:51:03;;;;;;;9.75;3.80;;;;;;;;;;4977671;28;20108;-64
2023/04/13 05:53:29;;;;;;;7.95;3.03;;;;;;;;;;4983944;28;20082;-64
2023/04/13 05:55:55;;;;;;;5.80;2.47;;;;;;;;;;4978377;28;20058;-64
2023/04/13 05:58:25;;;;;;;7.15;2.63;;;;;;;;;;4989321;28;20038;-64
2023/04/13 06:00:51;;;;;;;11.35;3.17;;;;;;;;;;4971925;28;20428;-64
2023/04/13 06:03:19;;;;;;;8.98;2.53;;;;;;;;;;4989926;28;20038;-66
2023/04/13 06:05:45;;;;;;;9.73;3.17;;;;;;;;;;4957793;28;20038;-65
2023/04/13 06:08:12;;;;;;;8.13;2.50;;;;;;;;;;4994751;28;20038;-64
2023/04/13 06:10:38;;;;;;;4.75;2.00;;;;;;;;;;4994121;28;20441;-64
2023/04/13 06:13:04;;;;;;;6.35;2.60;;;;;;;;;;4978264;28;20048;-65
2023/04/13 06:15:31;;;;;;;4.53;1.95;;;;;;;;;;4991355;28;20030;-64
2023/04/13 06:17:57;;;;;;;4.80;2.28;;;;;;;;;;4959914;28;20057;-65
2023/04/13 06:20:23;;;;;;;7.13;1.73;;;;;;;;;;4975277;28;20125;-65
2023/04/13 06:22:49;;;;;;;7.18;1.98;;;;;;;;;;4985644;28;20073;-65
2023/04/13 06:25:15;;;;;;;9.57;2.42;;;;;;;;;;4988862;28;20046;-66
2023/04/13 06:27:42;;;;;;;6.43;2.05;;;;;;;;;;4984678;28;20038;-65
2023/04/13 06:30:09;;;;;;;11.02;1.92;;;;;;;;;;4975941;28;20046;-65
2023/04/13 06:32:35;;;;;;;12.13;2.13;;;;;;;;;;4975601;28;20042;-65
2023/04/13 06:35:02;;;;;;;6.43;2.35;;;;;;;;;;4975450;28;20044;-65
2023/04/13 06:37:29;;;;;;;11.27;2.13;;;;;;;;;;4960180;28;20129;-65
2023/04/13 06:39:56;;;;;;;9.18;1.83;;;;;;;;;;4946502;28;20566;-64
2023/04/13 06:42:22;;;;;;;13.82;3.13;;;;;;;;;;4960162;28;20129;-66
2023/04/13 06:44:48;;;;;;;8.30;1.95;;;;;;;;;;4960201;28;20046;-65
2023/04/13 06:47:15;;;;;;;11.05;2.08;;;;;;;;;;4992911;28;20491;-65
2023/04/13 06:49:41;;;;;;;7.28;2.40;;;;;;;;;;4975642;28;20054;-65
2023/04/13 06:52:07;;;;;;;6.95;1.83;;;;;;;;;;4965762;28;20376;-65
2023/04/13 06:54:34;;;;;;;6.97;2.60;;;;;;;;;;4955178;28;20042;-66
2023/04/13 06:57:01;;;;;;;8.10;1.85;;;;;;;;;;4967666;28;20053;-65
2023/04/13 06:59:27;;;;;;;9.52;3.38;;;;;;;;;;4975131;28;20042;-64
2023/04/13 07:01:53;;;;;;;11.32;3.85;;;;;;;;;;4975056;28;20092;-65
2023/04/13 07:04:20;;;;;;;4.78;1.75;;;;;;;;;;4993010;28;20445;-65
2023/04/13 07:06:46;;;;;;;9.65;1.88;;;;;;;;;;4992991;28;20046;-65
2023/04/13 07:09:12;;;;;;;8.25;1.90;;;;;;;;;;4975093;28;20050;-64
2023/04/13 07:11:38;;;;;;;7.47;2.22;;;;;;;;;;4975654;28;20049;-65
2023/04/13 07:14:04;;;;;;;7.05;1.85;;;;;;;;;;4992213;28;20043;-65
2023/04/13 07:16:30;;;;;;;9.70;2.47;;;;;;;;;;4991455;28;20039;-65
2023/04/13 07:18:56;;;;;;;5.97;1.52;;;;;;;;;;4989765;28;20053;-65
2023/04/13 07:21:22;;;;;;;9.55;1.98;;;;;;;;;;4992513;28;20038;-65
2023/04/13 07:23:48;;;;;;;8.70;1.90;;;;;;;;;;4959952;28;20035;-65
2023/04/13 07:26:14;;;;;;;6.32;1.50;;;;;;;;;;4956710;28;20053;-65
2023/04/13 07:28:41;;;;;;;9.27;1.30;;;;;;;;;;4966719;28;20078;-65
2023/04/13 07:31:07;;;;;;;8.13;1.27;;;;;;;;;;4986009;28;20490;-65
2023/04/13 07:33:33;;;;;;;4.40;1.10;;;;;;;;;;4981039;28;20045;-64
2023/04/13 07:35:59;;;;;;;6.18;1.00;;;;;;;;;;4986029;28;20038;-66
2023/04/13 07:38:25;;;;;;;5.15;1.10;;;;;;;;;;4983666;28;20047;-65
2023/04/13 07:40:51;;;;;;;2.92;1.00;;;;;;;;;;4981368;28;20057;-65
2023/04/13 07:43:17;;;;;;;4.10;0.90;;;;;;;;;;4949428;28;20117;-65
2023/04/13 07:45:43;;;;;;;5.35;0.88;;;;;;;;;;4966875;28;20122;-65
2023/04/13 07:48:09;;;;;;;4.03;0.70;;;;;;;;;;4984503;28;20163;-65
2023/04/13 07:50:42;;;;;;;4.65;1.55;;;;;;;;;;4963646;28;20141;-65
2023/04/13 07:53:08;;;;;;;4.07;0.90;;;;;;;;;;4948058;28;20034;-65
2023/04/13 07:55:36;;;;;;;6.47;1.08;;;;;;;;;;4961508;28;20059;-65
2023/04/13 07:58:02;;;;;;;4.75;1.02;;;;;;;;;;4945277;28;20043;-66
2023/04/13 08:00:28;;;;;;;5.47;0.98;;;;;;;;;;4960840;28;20078;-65
2023/04/13 08:02:54;;;;;;;5.00;1.60;;;;;;;;;;5017762;23;20069;-65
2023/04/13 08:05:20;;;;;;;5.53;1.33;;;;;;;;;;4966149;28;20085;-66
2023/04/13 08:07:47;;;;;;;5.90;1.58;;;;;;;;;;4990297;28;20514;-65
2023/04/13 08:10:14;;;;;;;5.78;1.30;;;;;;;;;;4973591;28;20522;-65
2023/04/13 08:12:40;;;;;;;3.85;1.40;;;;;;;;;;4978181;28;20042;-66
2023/04/13 08:15:06;;;;;;;4.30;1.65;;;;;;;;;;4992487;28;20049;-65
2023/04/13 08:17:32;;;;;;;6.30;1.58;;;;;;;;;;4984143;28;20082;-66
2023/04/13 08:19:59;;;;;;;7.90;1.40;;;;;;;;;;4956582;28;20120;-66
2023/04/13 08:22:25;;;;;;;6.43;3.05;;;;;;;;;;5026826;23;20458;-66
2023/04/13 08:24:51;;;;;;;8.15;1.40;;;;;;;;;;4971701;28;20063;-65
2023/04/13 08:27:18;;;;;;;5.70;1.23;;;;;;;;;;4957925;28;20042;-66
2023/04/13 08:29:45;;;;;;;3.78;1.17;;;;;;;;;;4971506;28;20050;-66
2023/04/13 08:32:11;;;;;;;4.30;0.90;;;;;;;;;;4971312;28;20090;-64
2023/04/13 08:34:37;;;;;;;4.05;0.85;;;;;;;;;;4977542;28;20043;-67
2023/04/13 08:37:03;;;;;;;8.43;1.05;;;;;;;;;;4973773;28;20042;-66
2023/04/13 08:39:29;;;;;;;7.95;1.17;;;;;;;;;;4970662;28;20050;-65
2023/04/13 08:41:55;;;;;;;3.28;0.85;;;;;;;;;;4971810;28;20039;-66
2023/04/13 08:44:23;;;;;;;2.67;0.57;;;;;;;;;;4960397;28;20046;-66
2023/04/13 08:46:49;;;;;;;4.53;1.80;;;;;;;;;;4978709;28;20092;-66
2023/04/13 08:49:15;;;;;;;2.75;0.77;;;;;;;;;;4982628;28;20043;-65
2023/04/13 08:51:44;;;;;;;4.00;0.63;;;;;;;;;;4976277;28;20462;-66
2023/04/13 08:54:12;;;;;;;5.45;1.00;;;;;;;;;;4959090;28;20139;-65
2023/04/13 08:56:40;;;;;;;3.13;0.65;;;;;;;;;;4963104;28;20140;-66
2023/04/13 08:59:07;;;;;;;3.85;0.80;;;;;;;;;;4993962;28;20050;-66
2023/04/13 09:01:36;;;;;;;2.72;0.70;;;;;;;;;;4965268;28;20066;-66
2023/04/13 09:04:06;;;;;;;1.80;0.75;;;;;;;;;;4975311;28;20051;-65
2023/04/13 09:06:34;;;;;;;6.57;0.98;;;;;;;;;;4975347;28;20049;-66
2023/04/13 09:09:07;;;;;;;3.47;0.77;;;;;;;;;;4975813;28;20047;-65
2023/04/13 09:11:33;;;;;;;8.32;0.80;;;;;;;;;;4976502;28;20064;-66
2023/04/13 09:13:59;;;;;;;3.80;1.23;;;;;;;;;;4983400;28;20398;-66
2023/04/13 09:16:26;;;;;;;4.85;0.85;;;;;;;;;;4950692;28;20052;-65
2023/04/13 09:18:53;;;;;;;4.47;1.00;;;;;;;;;;4974705;28;20487;-65
2023/04/13 09:21:19;;;;;;;5.35;0.85;;;;;;;;;;4973761;28;20444;-65
2023/04/13 09:23:55;;;;;;;2.90;0.70;;;;;;;;;;4975386;28;20097;-66
2023/04/13 09:26:21;;;;;;;3.05;1.13;;;;;;;;;;4960077;28;20042;-65
2023/04/13 09:28:48;;;;;;;5.20;0.90;;;;;;;;;;4976314;28;20046;-65
2023/04/13 09:31:15;;;;;;;7.20;1.40;;;;;;;;;;4965838;28;20051;-65
2023/04/13 09:33:45;;;;;;;4.32;1.40;;;;;;;;;;4974036;28;20047;-66
2023/04/13 09:36:15;;;;;;;6.57;1.00;;;;;;;;;;4974452;28;20405;-66
2023/04/13 09:38:45;;;;;;;4.80;1.05;;;;;;;;;;4958330;28;20294;-66
2023/04/13 09:41:11;;;;;;;4.15;0.82;;;;;;;;;;4976398;28;20125;-65
2023/04/13 09:43:38;;;;;;;5.50;1.15;;;;;;;;;;4995005;28;20054;-65
2023/04/13 09:46:04;;;;;;;6.68;1.35;;;;;;;;;;4969426;28;20123;-66
2023/04/13 09:48:31;;;;;;;7.88;1.60;;;;;;;;;;4957610;28;20043;-66
2023/04/13 09:51:01;;;;;;;6.30;2.28;;;;;;;;;;4974748;28;20043;-66
2023/04/13 09:53:28;;;;;;;9.95;1.75;;;;;;;;;;4976972;28;20134;-65
2023/04/13 09:56:00;;;;;;;7.30;1.95;;;;;;;;;;4957314;28;20094;-66
2023/04/13 09:58:26;;;;;;;9.95;1.88;;;;;;;;;;4973590;28;20050;-66
2023/04/13 10:00:53;;;;;;;1.27;0.70;;;;;;;;;;4961547;28;20043;-64
2023/04/13 10:03:21;;;;;;;2.75;0.60;;;;;;;;;;4973341;28;20051;-64
2023/04/13 10:05:47;;;;;;;7.13;2.05;;;;;;;;;;4957115;28;20055;-64
2023/04/13 10:08:13;;;;;;;5.10;1.08;;;;;;;;;;4957421;28;20656;-64
2023/04/13 10:10:40;;;;;;;8.65;1.23;;;;;;;;;;4974638;28;20133;-63
2023/04/13 10:13:18;;;;;;;6.97;1.05;;;;;;;;;;4972195;28;20043;-64
2023/04/13 10:15:56;;;;;;;7.90;0.90;;;;;;;;;;4973559;28;20133;-65
2023/04/13 10:19:00;;;;;;;8.88;2.28;;;7.60;99.90;;;;;;4958007;28;20051;-65
2023/04/13 10:21:34;;;;;;;7.55;1.45;;;;;;;;;;4957910;28;20499;-65
2023/04/13 10:24:04;;;;;;;13.50;2.38;;;;;;;;;;4941154;28;20154;-65
2023/04/13 10:26:34;;;;;;;5.60;1.77;;;;;;;;;;4937295;29;20055;-66
2023/04/13 10:29:01;;;;;;;9.50;2.20;;;;;;;;;;4959652;28;20057;-66
2023/04/13 10:31:39;;;;;;;9.93;2.42;;;;;;;;;;4953998;28;20126;-66
2023/04/13 10:34:09;;;;;;;9.52;2.40;;;;;;;;;;4954276;28;20126;-66
2023/04/13 10:36:40;;;;;;;15.90;2.63;;;;;;;;;;4958333;28;20042;-66
2023/04/13 10:39:07;;;;;;;9.30;2.15;;;;;;;;;;4957569;28;20059;-65
2023/04/13 10:41:34;;;;;;;11.77;2.22;;;;;;;;;;4941666;28;20055;-66
2023/04/13 10:44:07;;;;;;;10.73;2.35;;;;;;;;;;4952966;28;20047;-66
2023/04/13 10:46:33;;;;;;;9.32;1.95;;;;;;;;;;4946150;29;20130;-66
2023/04/13 10:49:00;;;;;;;35.25;2.78;;;;;;;;;;4936077;29;20047;-66
2023/04/13 10:51:37;;;;;;;15.32;2.08;;;;;;;;;;4943021;28;20047;-65
2023/04/13 10:54:04;;;;;;;10.07;2.25;;;;;;;;;;4934696;28;20415;-65
2023/04/13 10:56:30;;;;;;;13.90;3.05;;;;;;;;;;4925815;28;20042;-66
2023/04/13 10:58:56;;;;;;;12.98;2.97;;;;;;;;;;4953720;29;20051;-65
2023/04/13 11:01:22;;;;;;;5.45;1.25;;;;;;;;;;4953557;29;20515;-66
2023/04/13 11:03:50;;;;;;;11.95;2.42;;;;;;;;;;4936419;29;20127;-65
2023/04/13 11:06:16;;;;;;;7.50;1.58;;;;;;;;;;4934060;29;20047;-65
2023/04/13 11:08:42;;;;;;;8.10;1.67;;;;;;;;;;4952359;29;20043;-65
2023/04/13 11:11:11;;;;;;;5.32;1.50;;;;;;;;;;4943065;29;20043;-66
2023/04/13 11:13:44;;;;;;;11.30;1.90;;;;;;;;;;4933447;29;20385;-65
2023/04/13 11:16:10;;;;;;;7.93;1.70;;;;;;;;;;4920367;28;20043;-65
2023/04/13 11:18:37;;;;;;;10.13;3.25;;;;;;;;;;4933914;29;20058;-66
2023/04/13 11:21:03;;;;;;;14.10;1.92;;;;;;;;;;4935958;29;20043;-65
2023/04/13 11:23:33;;;;;;;12.88;2.40;;;;;;;;;;4964124;28;20054;-65
2023/04/13 11:26:00;;;;;;;12.93;1.70;;;;;;;;;;4972860;28;20043;-66
2023/04/13 11:28:40;;;;;;;9.43;2.80;;;;;;;;;;4955204;28;20050;-65
2023/04/13 11:31:06;;;;;;;9.32;1.60;;;;;;;;;;4972501;28;20105;-65
2023/04/13 11:33:33;;;;;;;13.02;2.08;;;;;;;;;;4970978;28;20038;-65
2023/04/13 11:35:59;;;;;;;10.65;1.63;;;;;;;;;;4959025;28;20145;-66
2023/04/13 11:38:26;;;;;;;8.10;1.55;;;;;;;;;;4970187;28;20046;-66
2023/04/13 11:40:53;;;;;;;5.15;1.00;;;;;;;;;;4954899;28;20495;-66
2023/04/13 11:43:19;;;;;;;6.43;1.73;;;;;;;;;;4973809;28;20043;-68
2023/04/13 11:45:48;;;;;;;7.45;1.52;;;;;;;;;;4956975;28;20047;-66
2023/04/13 11:48:14;;;;;;;5.70;1.52;;;;;;;;;;4971719;28;20058;-66
2023/04/13 11:50:41;;;;;;;11.50;1.83;;;;;;;;;;4972119;28;20043;-66
2023/04/13 11:53:08;;;;;;;10.07;2.20;;;;;;;;;;4972526;28;20489;-66
2023/04/13 11:55:35;;;;;;;7.05;1.55;;;;;;;;;;4954016;28;20078;-65
2023/04/13 11:58:11;;;;;;;9.38;1.42;;;;;;;;;;4970168;28;20126;-66
2023/04/13 12:00:40;;;;;;;11.68;1.55;;;;;;;;;;4969943;28;20050;-68
2023/04/13 12:03:14;;;;;;;9.25;1.73;;;;;;;;;;4949172;28;20047;-66
2023/04/13 12:05:40;;;;;;;12.15;2.00;;;;;;;;;;4935876;28;20054;-66
2023/04/13 12:08:07;;;;;;;7.60;1.48;;;;;;;;;;4954423;28;20043;-66
2023/04/13 12:10:34;;;;;;;8.90;1.80;;;;;;;;;;4964676;28;20039;-66
2023/04/13 12:13:12;;;;;;;7.88;1.35;;;;;;;;;;4951241;28;20094;-66
2023/04/13 12:15:39;;;;;;;7.75;1.65;;;;;;;;;;4946395;28;20051;-66
2023/04/13 12:18:05;;;;;;;5.78;1.35;;;;;;;;;;4957178;28;20047;-66
2023/04/13 12:20:35;;;;;;;7.47;1.90;;;;;;;;;;4957033;28;20043;-66
2023/04/13 12:23:02;;;;;;;9.98;2.13;;;;;;;;;;4972830;28;20519;-66
2023/04/13 12:25:28;;;;;;;9.80;1.65;;;;;;;;;;4957541;28;20526;-66
2023/04/13 12:27:54;;;;;;;10.20;1.50;;;;;;;;;;4957075;28;20055;-66
2023/04/13 12:30:21;;;;;;;5.53;1.33;;;;;;;;;;4958307;28;20121;-65
2023/04/13 12:32:48;;;;;;;7.55;3.00;;;;;;;;;;4946788;28;20058;-66
2023/04/13 12:35:15;;;;;;;4.20;0.90;;;;;;;;;;4955701;28;20059;-66
2023/04/13 12:37:44;;;;;;;8.85;1.38;;;;;;;;;;4958062;28;20047;-65
2023/04/13 12:40:14;;;;;;;18.10;2.45;;;;;;;;;;4958312;28;20058;-66
2023/04/13 12:42:47;;;;;;;7.22;1.30;;;;;;;;;;4958971;28;20050;-65
2023/04/13 12:45:13;;;;;;;4.80;1.45;;;;;;;;;;4958600;28;20531;-66
2023/04/13 12:47:40;;;;;;;6.25;1.25;;;;;;;;;;4963471;28;20430;-66
2023/04/13 12:50:06;;;;;;;7.13;1.05;;;;;;;;;;4977942;28;20056;-66
2023/04/13 12:52:33;;;;;;;4.45;1.38;;;;;;;;;;4961949;28;20043;-66
2023/04/13 12:54:59;;;;;;;9.82;1.55;;;;;;;;;;4958687;28;20097;-66
2023/04/13 12:57:28;;;;;;;6.57;1.17;;;;;;;;;;4975195;28;20126;-66
2023/04/13 12:59:55;;;;;;;8.98;1.60;;;;;;;;;;4958947;28;20054;-66
2023/04/13 13:02:22;;;;;;;8.77;1.27;;;;;;;;;;4958979;28;20050;-66
2023/04/13 13:04:49;;;;;;;12.05;1.40;;;;;;;;;;4958431;28;20477;-66
2023/04/13 13:07:15;;;;;;;8.05;2.78;;;;;;;;;;4957320;28;20534;-66
2023/04/13 13:09:42;;;;;;;8.93;1.48;;;;;;;;;;4974217;28;20057;-66
2023/04/13 13:12:08;;;;;;;14.48;2.42;;;;;;;;;;4975426;28;20059;-66
2023/04/13 13:14:34;;;;;;;8.30;2.70;;;;;;;;;;4957980;28;20099;-67
2023/04/13 13:17:02;;;;;;;8.18;2.60;;;;;;;;;;4975097;28;20097;-66
2023/04/13 13:19:28;;;;;;;8.80;1.65;;;;;;;;;;4974270;28;20126;-66
2023/04/13 13:21:54;;;;;;;11.23;1.35;;;;;;;;;;4974623;28;20082;-65
2023/04/13 13:24:21;;;;;;;6.80;1.45;;;;;;;;;;4956504;28;20054;-66
2023/04/13 13:26:47;;;;;;;8.73;1.63;;;;;;;;;;4974165;28;20047;-66
2023/04/13 13:29:13;;;;;;;10.68;2.03;;;;;;;;;;4972442;28;20078;-66
2023/04/13 13:31:40;;;;;;;10.05;1.77;;;;;;;;;;4975055;28;20113;-66
2023/04/13 13:34:06;;;;;;;9.15;1.40;;;;;;;;;;4958315;28;20061;-65
2023/04/13 13:36:32;;;;;;;13.63;1.58;;;;;;;;;;4958174;28;20070;-66
2023/04/13 13:38:58;;;;;;;1.88;0.77;;;;;;;;;;4974582;28;20035;-66
2023/04/13 13:41:25;;;;;;;7.57;1.42;;;;;;;;;;4974569;28;20058;-66
2023/04/13 13:43:51;;;;;;;6.47;1.42;;;;;;;;;;4956853;28;20054;-65
2023/04/13 13:46:17;;;;;;;11.77;1.67;;;;;;;;;;4958198;28;20039;-66
2023/04/13 13:48:44;;;;;;;9.18;1.83;;;;;;;;;;4974570;28;20050;-66
2023/04/13 13:51:10;;;;;;;6.57;1.52;;;;;;;;;;4961289;28;20407;-66
2023/04/13 13:53:36;;;;;;;11.65;1.77;;;;;;;;;;4975475;28;20058;-66
2023/04/13 13:56:03;;;;;;;6.82;1.30;;;;;;;;;;4958349;28;20077;-66
2023/04/13 13:58:29;;;;;;;11.93;1.30;;;;;;;;;;4974500;28;20097;-66
2023/04/13 14:00:55;;;;;;;7.20;1.15;;;;;;;;;;4978503;28;20050;-65
2023/04/13 14:03:21;;;;;;;10.63;2.03;;;;;;;;;;4961666;28;20551;-66
2023/04/13 14:05:47;;;;;;;6.72;1.33;;;;;;;;;;4977420;28;20089;-66
2023/04/13 14:08:14;;;;;;;9.77;1.80;;;;;;;;;;4974869;28;20050;-67
2023/04/13 14:10:42;;;;;;;12.20;1.55;;;;;;;;;;4957482;28;20428;-66
2023/04/13 14:13:08;;;;;;;10.30;1.30;;;;;;;;;;4975130;28;20051;-66
2023/04/13 14:15:34;;;;;;;6.38;1.17;;;;;;;;;;4974500;28;20503;-65
2023/04/13 14:18:00;;;;;;;7.28;1.00;;;;;;;;;;4973676;28;20055;-65
2023/04/13 14:20:26;;;;;;;8.38;1.33;;;;;;;;;;4978382;28;20058;-66
2023/04/13 14:22:52;;;;;;;5.93;0.93;;;;;;;;;;4960674;28;20082;-66
2023/04/13 14:25:18;;;;;;;9.85;1.70;;;;;;;;;;4976720;28;20093;-66
2023/04/13 14:27:45;;;;;;;7.40;1.60;;;;;;;;;;4992973;28;20621;-66
2023/04/13 14:30:12;;;;;;;9.85;1.05;;;;;;;;;;4964775;28;20066;-66
2023/04/13 14:32:38;;;;;;;5.55;1.00;;;;;;;;;;4973596;28;20055;-65
2023/04/13 14:35:04;;;;;;;5.75;1.00;;;;;;;;;;4972835;28;20049;-65
2023/04/13 14:37:30;;;;;;;8.38;1.30;;;;;;;;;;4972970;28;20376;-66
2023/04/13 14:39:57;;;;;;;10.07;2.20;;;;;;;;;;4955228;28;20046;-66
2023/04/13 14:42:23;;;;;;;7.97;1.88;;;;;;;;;;4973152;28;20051;-65